Wilson Algeciras — 9HA2471 — position and weather

sailwx.info

Track history (hours):
 
Tides and Currents Weather Stations Pressure Air Temp Water Temp Dewpoint Dewpoint Depression Visibility Wind Speed Wind Dir Waves Ship Positions

Wilson Algeciras

Last reported at 2018-Apr-20 16:30 UTC. Time now 2018-Apr-20 16:45 UTC.
Position N 67°49' E 014°17'.

Length 88 m; draft 3.2 m.

Type: Ship. MMSI: 248689000.

Date/timePositionNaut miles runAvg speedWind from/ knotsBaromVisibWave heightAir tempDewpointWater temp
2018-Apr-20 16:30N 67°49' E 014°17'510.0
2018-Apr-20 16:00N 67°46' E 014°08'5 9.8
2018-Apr-20 15:31N 67°43' E 013°58'510.0
2018-Apr-20 15:00N 67°39' E 013°49'5 9.2
2018-Apr-20 14:30N 67°36' E 013°40'4 8.8
2018-Apr-20 14:00N 67°33' E 013°32'4 9.0
2018-Apr-20 13:30N 67°29' E 013°24'5 9.0
2018-Apr-20 13:00N 67°26' E 013°16'5 9.1
2018-Apr-20 12:30N 67°23' E 013°08'51 9.3
2018-Apr-20 06:59N 66°43' E 011°45'510.3
2018-Apr-20 06:30N 66°38' E 011°46'510.3
2018-Apr-20 06:00N 66°33' E 011°46'510.2
2018-Apr-20 05:30N 66°28' E 011°46'5 9.6
2018-Apr-20 05:00N 66°23' E 011°49'5 9.0
2018-Apr-20 04:30N 66°20' E 011°58'5 9.4
2018-Apr-20 04:00N 66°18' E 012°08'5 9.5
2018-Apr-20 03:30N 66°17' E 012°19'5 9.8
2018-Apr-20 03:00N 66°15' E 012°30'4 7.2
2018-Apr-20 02:30N 66°13' E 012°38'510.5
2018-Apr-20 02:00N 66°08' E 012°40'510.3
2018-Apr-20 01:29N 66°03' E 012°38'4 7.9
2018-Apr-20 01:00N 66°03' E 012°48'4 8.1
2018-Apr-20 00:30N 66°01' E 012°56'4 7.5
2018-Apr-20 00:00N 65°57' E 012°58'510.0
2018-Apr-19 23:30N 65°54' E 013°08'3 6.8
2018-Apr-19 23:00N 65°51' E 013°11'0 0.0
2018-Apr-19 22:30N 65°51' E 013°11'0 0.0
2018-Apr-19 21:59N 65°51' E 013°11'0 0.0
2018-Apr-19 21:30N 65°51' E 013°11'0 0.0
2018-Apr-19 21:00N 65°51' E 013°11'0 0.0
2018-Apr-19 20:27N 65°51' E 013°11'0 0.0
2018-Apr-19 20:00N 65°51' E 013°11'0 0.0
2018-Apr-19 19:30N 65°51' E 013°11'0 0.0
2018-Apr-19 19:00N 65°51' E 013°11'0 0.0
2018-Apr-19 18:29N 65°51' E 013°11'0 0.0
2018-Apr-19 18:00N 65°51' E 013°11'0 0.0
2018-Apr-19 17:30N 65°51' E 013°11'0 0.0
2018-Apr-19 17:00N 65°51' E 013°11'0 0.0
2018-Apr-19 16:30N 65°51' E 013°11'0 0.0
2018-Apr-19 16:00N 65°51' E 013°11'0 0.0
2018-Apr-19 15:28N 65°51' E 013°11'0 0.0
2018-Apr-19 14:58N 65°51' E 013°11'0 0.0
2018-Apr-19 14:28N 65°51' E 013°11'0 0.0
2018-Apr-19 13:58N 65°51' E 013°11'0 0.0
2018-Apr-19 13:28N 65°51' E 013°11'0 0.0
2018-Apr-19 12:58N 65°51' E 013°11'0 0.0
2018-Apr-19 12:28N 65°51' E 013°11'0 0.0
2018-Apr-19 11:59N 65°51' E 013°11'0 0.0
2018-Apr-19 11:30N 65°51' E 013°11'0 0.0
2018-Apr-19 10:57N 65°51' E 013°11'0 0.0
2018-Apr-19 10:30N 65°51' E 013°11'0 0.0
2018-Apr-19 09:51N 65°51' E 013°11'0 0.0
2018-Apr-19 09:27N 65°51' E 013°11'0 0.0
2018-Apr-19 08:59N 65°51' E 013°11'0 0.0
2018-Apr-19 08:30N 65°51' E 013°11'0 0.0
2018-Apr-19 08:00N 65°51' E 013°11'0 0.0
2018-Apr-19 07:30N 65°51' E 013°11'0 0.0
2018-Apr-19 07:00N 65°51' E 013°11'0 0.0
2018-Apr-19 06:30N 65°51' E 013°11'0 0.0
2018-Apr-19 05:59N 65°51' E 013°11'0 0.0
2018-Apr-19 05:26N 65°51' E 013°11'0 0.0
2018-Apr-19 04:59N 65°51' E 013°11'0 0.1
2018-Apr-19 04:29N 65°51' E 013°11'0 0.0
2018-Apr-19 04:00N 65°51' E 013°11'0 0.0
2018-Apr-19 03:30N 65°51' E 013°11'0 0.0
2018-Apr-19 02:58N 65°51' E 013°11'0 0.0
2018-Apr-19 02:30N 65°51' E 013°11'0 0.0
2018-Apr-19 02:00N 65°51' E 013°11'0 0.0
2018-Apr-19 01:30N 65°51' E 013°11'0 0.0
2018-Apr-19 01:00N 65°51' E 013°11'0 0.0
2018-Apr-19 00:30N 65°51' E 013°11'0 0.0
2018-Apr-19 00:00N 65°51' E 013°11'0 0.0
2018-Apr-18 23:30N 65°51' E 013°11'0 0.0
2018-Apr-18 23:00N 65°51' E 013°11'0 0.0
2018-Apr-18 22:30N 65°51' E 013°11'0 0.0
2018-Apr-18 22:00N 65°51' E 013°11'0 0.0
2018-Apr-18 21:30N 65°51' E 013°11'0 0.0
2018-Apr-18 21:00N 65°51' E 013°11'0 0.0
2018-Apr-18 20:30N 65°51' E 013°11'0 0.0
2018-Apr-18 20:00N 65°51' E 013°11'0 0.0
2018-Apr-18 19:30N 65°51' E 013°11'0 0.0
2018-Apr-18 18:59N 65°51' E 013°11'0 0.0
2018-Apr-18 18:30N 65°51' E 013°11'0 0.0
2018-Apr-18 18:00N 65°51' E 013°11'0 0.0
2018-Apr-18 17:30N 65°51' E 013°11'0 0.0
2018-Apr-18 17:00N 65°51' E 013°11'0 0.0
2018-Apr-18 16:29N 65°51' E 013°11'0 0.0
2018-Apr-18 15:59N 65°51' E 013°11'0 0.0
2018-Apr-18 15:26N 65°51' E 013°11'0 0.0
2018-Apr-18 14:59N 65°51' E 013°11'0 0.0
2018-Apr-18 14:29N 65°51' E 013°11'0 0.0
2018-Apr-18 13:59N 65°51' E 013°11'0 0.0
2018-Apr-18 13:28N 65°51' E 013°11'0 0.0
2018-Apr-18 12:52N 65°51' E 013°11'0 0.0
2018-Apr-18 12:28N 65°51' E 013°11'0 0.0
2018-Apr-18 11:54N 65°51' E 013°11'0 0.0
2018-Apr-18 11:29N 65°51' E 013°11'0 0.0
2018-Apr-18 10:59N 65°51' E 013°11'0 0.0
2018-Apr-18 10:28N 65°51' E 013°11'0 0.0
2018-Apr-18 09:55N 65°51' E 013°11'0 0.0
2018-Apr-18 09:28N 65°51' E 013°11'0 0.0
2018-Apr-18 08:58N 65°51' E 013°11'0 0.0
2018-Apr-18 08:30N 65°51' E 013°11'0 0.0
2018-Apr-18 07:59N 65°51' E 013°11'0 0.0
2018-Apr-18 07:29N 65°51' E 013°11'0 0.0
2018-Apr-18 07:00N 65°51' E 013°11'0 0.0
2018-Apr-18 06:30N 65°51' E 013°11'0 0.0
2018-Apr-18 06:00N 65°51' E 013°11'0 0.0
2018-Apr-18 05:29N 65°51' E 013°11'0 0.0
2018-Apr-18 04:59N 65°51' E 013°11'0 0.0
2018-Apr-18 04:30N 65°51' E 013°11'0 0.0
2018-Apr-18 04:00N 65°51' E 013°11'0 0.0
2018-Apr-18 03:30N 65°51' E 013°11'0 0.0
2018-Apr-18 03:00N 65°51' E 013°11'0 0.0
2018-Apr-18 02:30N 65°51' E 013°11'0 0.0
2018-Apr-18 01:58N 65°51' E 013°11'0 0.0
2018-Apr-18 01:28N 65°51' E 013°11'0 0.0
2018-Apr-18 00:17N 65°51' E 013°11'0 0.0
2018-Apr-17 23:42N 65°51' E 013°11'0 0.0
2018-Apr-17 23:18N 65°51' E 013°11'0 0.0
2018-Apr-17 22:55N 65°51' E 013°11'0 0.0
2018-Apr-17 22:30N 65°51' E 013°11'0 0.0
2018-Apr-17 22:00N 65°51' E 013°11'0 0.0
2018-Apr-17 21:30N 65°51' E 013°11'0 0.0
2018-Apr-17 20:58N 65°51' E 013°11'0 0.0
2018-Apr-17 20:30N 65°51' E 013°11'0 0.0
2018-Apr-17 20:00N 65°51' E 013°11'0 0.0
2018-Apr-17 19:28N 65°51' E 013°11'0 0.0
2018-Apr-17 19:00N 65°51' E 013°11'0 0.0
2018-Apr-17 18:29N 65°51' E 013°11'0 0.0
2018-Apr-17 18:00N 65°51' E 013°11'0 0.0
2018-Apr-17 17:30N 65°51' E 013°11'0 0.0
2018-Apr-17 17:00N 65°51' E 013°11'0 0.0
2018-Apr-17 16:30N 65°51' E 013°11'0 0.0
2018-Apr-17 15:58N 65°51' E 013°11'0 0.0
2018-Apr-17 15:30N 65°51' E 013°11'0 0.0
2018-Apr-17 14:58N 65°51' E 013°11'0 0.0
2018-Apr-17 14:30N 65°51' E 013°11'0 0.0
2018-Apr-17 14:00N 65°51' E 013°11'0 0.0
2018-Apr-17 13:30N 65°51' E 013°11'0 0.0
2018-Apr-17 13:00N 65°51' E 013°11'0 0.0
2018-Apr-17 12:30N 65°51' E 013°11'0 0.0
2018-Apr-17 12:00N 65°51' E 013°11'0 0.0
2018-Apr-17 11:30N 65°51' E 013°11'0 0.0
2018-Apr-17 11:00N 65°51' E 013°11'0 0.0
2018-Apr-17 10:27N 65°51' E 013°11'0 0.0
2018-Apr-17 09:45N 65°51' E 013°11'0 0.0
2018-Apr-17 09:26N 65°51' E 013°11'0 0.0
2018-Apr-17 08:59N 65°51' E 013°11'0 0.0
2018-Apr-17 08:30N 65°51' E 013°11'0 0.0
2018-Apr-17 08:00N 65°51' E 013°11'0 0.0
2018-Apr-17 07:30N 65°51' E 013°11'0 0.0
2018-Apr-17 06:58N 65°51' E 013°11'0 0.0
2018-Apr-17 06:25N 65°51' E 013°11'0 0.0
2018-Apr-17 05:58N 65°51' E 013°11'0 0.0
2018-Apr-17 05:28N 65°51' E 013°11'0 0.0
2018-Apr-17 05:00N 65°51' E 013°11'0 0.0
2018-Apr-17 04:28N 65°51' E 013°11'0 0.0
2018-Apr-17 04:00N 65°51' E 013°11'0 0.0
2018-Apr-17 03:30N 65°51' E 013°11'0 0.0
2018-Apr-17 03:00N 65°51' E 013°11'0 0.0
2018-Apr-17 02:29N 65°51' E 013°11'0 0.0
2018-Apr-17 01:58N 65°51' E 013°11'0 0.0
2018-Apr-17 01:30N 65°51' E 013°11'0 0.0
2018-Apr-17 01:00N 65°51' E 013°11'0 0.0
2018-Apr-17 00:27N 65°51' E 013°11'0 0.0
2018-Apr-17 00:00N 65°51' E 013°11'0 0.0
2018-Apr-16 23:30N 65°51' E 013°11'0 0.0
2018-Apr-16 23:00N 65°51' E 013°11'0 0.0
2018-Apr-16 22:30N 65°51' E 013°11'0 0.0
2018-Apr-16 22:00N 65°51' E 013°11'0 0.0
2018-Apr-16 21:30N 65°51' E 013°11'0 0.0
2018-Apr-16 21:00N 65°51' E 013°11'0 0.0
2018-Apr-16 20:30N 65°51' E 013°11'0 0.0
2018-Apr-16 19:58N 65°51' E 013°11'0 0.0
2018-Apr-16 19:30N 65°51' E 013°11'0 0.0
2018-Apr-16 19:00N 65°51' E 013°11'0 0.0
2018-Apr-16 18:30N 65°51' E 013°11'0 0.0
2018-Apr-16 18:00N 65°51' E 013°11'0 0.0
2018-Apr-16 17:30N 65°51' E 013°11'0 0.0
2018-Apr-16 17:00N 65°51' E 013°11'0 0.0
2018-Apr-16 16:30N 65°51' E 013°11'0 0.0
2018-Apr-16 16:00N 65°51' E 013°11'0 0.0
2018-Apr-16 15:30N 65°51' E 013°11'0 0.0
2018-Apr-16 15:00N 65°51' E 013°11'0 0.0
2018-Apr-16 14:30N 65°51' E 013°11'0 0.0
2018-Apr-16 13:58N 65°51' E 013°11'0 0.0
2018-Apr-16 13:29N 65°51' E 013°11'0 0.0
2018-Apr-16 12:59N 65°51' E 013°11'0 0.0
2018-Apr-16 12:30N 65°51' E 013°11'0 0.1
2018-Apr-16 12:00N 65°51' E 013°11'3 6.4
2018-Apr-16 11:29N 65°54' E 013°08'4 9.0
2018-Apr-16 11:00N 65°57' E 012°59'3 7.0
2018-Apr-16 10:30N 65°60' E 012°55'3 6.2
2018-Apr-16 10:00N 66°03' E 012°53'4 8.8
2018-Apr-16 09:30N 66°02' E 012°42'3 5.7
2018-Apr-16 09:00N 66°05' E 012°39'5 9.2
2018-Apr-16 08:30N 66°09' E 012°40'4 8.8
2018-Apr-16 08:00N 66°14' E 012°38'4 7.1
2018-Apr-16 07:30N 66°15' E 012°29'4 8.6
2018-Apr-16 07:00N 66°16' E 012°19'5 9.1
2018-Apr-16 06:31N 66°16' E 012°08'5 9.0
2018-Apr-16 06:00N 66°15' E 011°57'4 9.0
2018-Apr-16 05:31N 66°14' E 011°47'5 9.3
2018-Apr-16 05:00N 66°12' E 011°36'5 9.2
2018-Apr-16 04:30N 66°09' E 011°28'5 9.6
2018-Apr-16 04:00N 66°05' E 011°21'231 9.0
2018-Apr-15 02:24N 62°59' E 006°03'4 9.3
2018-Apr-15 02:00N 62°56' E 005°59'5 9.2
2018-Apr-15 01:29N 62°52' E 005°53'4 8.8
2018-Apr-15 01:00N 62°49' E 005°47'4 8.8
2018-Apr-15 00:30N 62°45' E 005°41'4 8.8
2018-Apr-15 00:00N 62°42' E 005°36'4 8.7
2018-Apr-14 23:30N 62°38' E 005°30'4 9.0
2018-Apr-14 23:00N 62°35' E 005°24'5 8.9
2018-Apr-14 22:30N 62°31' E 005°19'4 8.9
2018-Apr-14 22:00N 62°27' E 005°13'5 8.9
2018-Apr-14 21:29N 62°24' E 005°07'4 8.8
2018-Apr-14 21:00N 62°20' E 005°02'4 8.6
2018-Apr-14 20:30N 62°17' E 004°56'5 9.4
2018-Apr-14 20:00N 62°13' E 004°50'5 9.0
2018-Apr-14 19:30N 62°09' E 004°45'5 8.9
2018-Apr-14 18:59N 62°06' E 004°39'4 9.1
2018-Apr-14 18:30N 62°02' E 004°33'4 8.9
2018-Apr-14 18:00N 61°58' E 004°29'4 8.9
2018-Apr-14 17:30N 61°54' E 004°27'4 8.8
2018-Apr-14 17:01N 61°50' E 004°26'5 9.1
2018-Apr-14 16:30N 61°45' E 004°23'  
2018-Apr-12 00:11N 54°07' E 000°39'2 7.0
2018-Apr-11 23:57N 54°06' E 000°38'3 7.1
2018-Apr-11 23:29N 54°03' E 000°37'33 7.2
2018-Apr-11 18:51N 53°33' E 000°12'3 9.3
2018-Apr-11 18:30N 53°33' E 000°07'4 6.8
2018-Apr-11 17:58N 53°35' E 000°02'510.5
2018-Apr-11 17:27N 53°37' W 000°07'3 6.1
2018-Apr-11 17:00N 53°38' W 000°11'0 0.4
2018-Apr-11 16:30N 53°38' W 000°12'0 0.3
2018-Apr-11 16:00N 53°38' W 000°12'0 0.0
2018-Apr-11 15:28N 53°38' W 000°12'0 0.0
2018-Apr-11 14:58N 53°38' W 000°12'0 0.0
2018-Apr-11 14:28N 53°38' W 000°12'0 0.0
2018-Apr-11 13:58N 53°38' W 000°12'0 0.0
2018-Apr-11 13:22N 53°38' W 000°12'0 0.0
2018-Apr-11 12:58N 53°38' W 000°12'0 0.0
2018-Apr-11 12:22N 53°38' W 000°12'0 0.0
2018-Apr-11 11:46N 53°38' W 000°12'0 0.0
2018-Apr-11 11:22N 53°38' W 000°12'0 0.0
2018-Apr-11 10:58N 53°38' W 000°12'0 0.0
2018-Apr-11 10:22N 53°38' W 000°12'0 0.0
2018-Apr-11 09:55N 53°38' W 000°12'0 0.0
2018-Apr-11 09:16N 53°38' W 000°12'0 0.0
2018-Apr-11 08:58N 53°38' W 000°12'0 0.0
2018-Apr-11 08:10N 53°38' W 000°12'0 0.0
2018-Apr-11 07:10N 53°38' W 000°12'0 0.0
2018-Apr-11 06:55N 53°38' W 000°12'0 0.0
2018-Apr-11 02:25N 53°38' W 000°12'0 0.0
2018-Apr-11 01:55N 53°38' W 000°12'0 0.0
2018-Apr-11 00:13N 53°38' W 000°12'0 0.0
2018-Apr-10 23:59N 53°38' W 000°12'0 0.0
2018-Apr-10 23:30N 53°38' W 000°12'0 0.0
2018-Apr-10 22:49N 53°38' W 000°12'0 0.0
2018-Apr-10 22:30N 53°38' W 000°12'0 0.0
2018-Apr-10 21:59N 53°38' W 000°12'0 0.0
2018-Apr-10 21:30N 53°38' W 000°12'0 0.0
2018-Apr-10 21:00N 53°38' W 000°12'0 0.7
2018-Apr-10 20:30N 53°38' W 000°11'1 1.7
2018-Apr-10 20:00N 53°39' W 000°12'1 3.0
2018-Apr-10 19:30N 53°38' W 000°10'3 5.5
2018-Apr-10 19:00N 53°37' W 000°05'4 8.3
2018-Apr-10 18:30N 53°35' E 000°01'4 8.4
2018-Apr-10 18:00N 53°34' E 000°08'  
Track history (hours):
 
Tides and Currents Weather Stations Pressure Air Temp Water Temp Dewpoint Dewpoint Depression Visibility Wind Speed Wind Dir Waves Ship Positions

Wilson Algeciras

Last reported at 2018-Apr-20 16:30 UTC. Time now 2018-Apr-20 16:45 UTC.
Position N 67°49' E 014°17'.

Length 88 m; draft 3.2 m.

Type: Ship. MMSI: 248689000.

Date/timePositionNaut miles runAvg speedWind from/ knotsBaromVisibWave heightAir tempDewpointWater temp
2018-Apr-20 16:30N 67°49' E 014°17'510.0
2018-Apr-20 16:00N 67°46' E 014°08'5 9.8
2018-Apr-20 15:31N 67°43' E 013°58'510.0
2018-Apr-20 15:00N 67°39' E 013°49'5 9.2
2018-Apr-20 14:30N 67°36' E 013°40'4 8.8
2018-Apr-20 14:00N 67°33' E 013°32'4 9.0
2018-Apr-20 13:30N 67°29' E 013°24'5 9.0
2018-Apr-20 13:00N 67°26' E 013°16'5 9.1
2018-Apr-20 12:30N 67°23' E 013°08'51 9.3
2018-Apr-20 06:59N 66°43' E 011°45'510.3
2018-Apr-20 06:30N 66°38' E 011°46'510.3
2018-Apr-20 06:00N 66°33' E 011°46'510.2
2018-Apr-20 05:30N 66°28' E 011°46'5 9.6
2018-Apr-20 05:00N 66°23' E 011°49'5 9.0
2018-Apr-20 04:30N 66°20' E 011°58'5 9.4
2018-Apr-20 04:00N 66°18' E 012°08'5 9.5
2018-Apr-20 03:30N 66°17' E 012°19'5 9.8
2018-Apr-20 03:00N 66°15' E 012°30'4 7.2
2018-Apr-20 02:30N 66°13' E 012°38'510.5
2018-Apr-20 02:00N 66°08' E 012°40'510.3
2018-Apr-20 01:29N 66°03' E 012°38'4 7.9
2018-Apr-20 01:00N 66°03' E 012°48'4 8.1
2018-Apr-20 00:30N 66°01' E 012°56'4 7.5
2018-Apr-20 00:00N 65°57' E 012°58'510.0
2018-Apr-19 23:30N 65°54' E 013°08'3 6.8
2018-Apr-19 23:00N 65°51' E 013°11'0 0.0
2018-Apr-19 22:30N 65°51' E 013°11'0 0.0
2018-Apr-19 21:59N 65°51' E 013°11'0 0.0
2018-Apr-19 21:30N 65°51' E 013°11'0 0.0
2018-Apr-19 21:00N 65°51' E 013°11'0 0.0
2018-Apr-19 20:27N 65°51' E 013°11'0 0.0
2018-Apr-19 20:00N 65°51' E 013°11'0 0.0
2018-Apr-19 19:30N 65°51' E 013°11'0 0.0
2018-Apr-19 19:00N 65°51' E 013°11'0 0.0
2018-Apr-19 18:29N 65°51' E 013°11'0 0.0
2018-Apr-19 18:00N 65°51' E 013°11'0 0.0
2018-Apr-19 17:30N 65°51' E 013°11'0 0.0
2018-Apr-19 17:00N 65°51' E 013°11'0 0.0
2018-Apr-19 16:30N 65°51' E 013°11'0 0.0
2018-Apr-19 16:00N 65°51' E 013°11'0 0.0
2018-Apr-19 15:28N 65°51' E 013°11'0 0.0
2018-Apr-19 14:58N 65°51' E 013°11'0 0.0
2018-Apr-19 14:28N 65°51' E 013°11'0 0.0
2018-Apr-19 13:58N 65°51' E 013°11'0 0.0
2018-Apr-19 13:28N 65°51' E 013°11'0 0.0
2018-Apr-19 12:58N 65°51' E 013°11'0 0.0
2018-Apr-19 12:28N 65°51' E 013°11'0 0.0
2018-Apr-19 11:59N 65°51' E 013°11'0 0.0
2018-Apr-19 11:30N 65°51' E 013°11'0 0.0
2018-Apr-19 10:57N 65°51' E 013°11'0 0.0
2018-Apr-19 10:30N 65°51' E 013°11'0 0.0
2018-Apr-19 09:51N 65°51' E 013°11'0 0.0
2018-Apr-19 09:27N 65°51' E 013°11'0 0.0
2018-Apr-19 08:59N 65°51' E 013°11'0 0.0
2018-Apr-19 08:30N 65°51' E 013°11'0 0.0
2018-Apr-19 08:00N 65°51' E 013°11'0 0.0
2018-Apr-19 07:30N 65°51' E 013°11'0 0.0
2018-Apr-19 07:00N 65°51' E 013°11'0 0.0
2018-Apr-19 06:30N 65°51' E 013°11'0 0.0
2018-Apr-19 05:59N 65°51' E 013°11'0 0.0
2018-Apr-19 05:26N 65°51' E 013°11'0 0.0
2018-Apr-19 04:59N 65°51' E 013°11'0 0.1
2018-Apr-19 04:29N 65°51' E 013°11'0 0.0
2018-Apr-19 04:00N 65°51' E 013°11'0 0.0
2018-Apr-19 03:30N 65°51' E 013°11'0 0.0
2018-Apr-19 02:58N 65°51' E 013°11'0 0.0
2018-Apr-19 02:30N 65°51' E 013°11'0 0.0
2018-Apr-19 02:00N 65°51' E 013°11'0 0.0
2018-Apr-19 01:30N 65°51' E 013°11'0 0.0
2018-Apr-19 01:00N 65°51' E 013°11'0 0.0
2018-Apr-19 00:30N 65°51' E 013°11'0 0.0
2018-Apr-19 00:00N 65°51' E 013°11'0 0.0
2018-Apr-18 23:30N 65°51' E 013°11'0 0.0
2018-Apr-18 23:00N 65°51' E 013°11'0 0.0
2018-Apr-18 22:30N 65°51' E 013°11'0 0.0
2018-Apr-18 22:00N 65°51' E 013°11'0 0.0
2018-Apr-18 21:30N 65°51' E 013°11'0 0.0
2018-Apr-18 21:00N 65°51' E 013°11'0 0.0
2018-Apr-18 20:30N 65°51' E 013°11'0 0.0
2018-Apr-18 20:00N 65°51' E 013°11'0 0.0
2018-Apr-18 19:30N 65°51' E 013°11'0 0.0
2018-Apr-18 18:59N 65°51' E 013°11'0 0.0
2018-Apr-18 18:30N 65°51' E 013°11'0 0.0
2018-Apr-18 18:00N 65°51' E 013°11'0 0.0
2018-Apr-18 17:30N 65°51' E 013°11'0 0.0
2018-Apr-18 17:00N 65°51' E 013°11'0 0.0
2018-Apr-18 16:29N 65°51' E 013°11'0 0.0
2018-Apr-18 15:59N 65°51' E 013°11'0 0.0
2018-Apr-18 15:26N 65°51' E 013°11'0 0.0
2018-Apr-18 14:59N 65°51' E 013°11'0 0.0
2018-Apr-18 14:29N 65°51' E 013°11'0 0.0
2018-Apr-18 13:59N 65°51' E 013°11'0 0.0
2018-Apr-18 13:28N 65°51' E 013°11'0 0.0
2018-Apr-18 12:52N 65°51' E 013°11'0 0.0
2018-Apr-18 12:28N 65°51' E 013°11'0 0.0
2018-Apr-18 11:54N 65°51' E 013°11'0 0.0
2018-Apr-18 11:29N 65°51' E 013°11'0 0.0
2018-Apr-18 10:59N 65°51' E 013°11'0 0.0
2018-Apr-18 10:28N 65°51' E 013°11'0 0.0
2018-Apr-18 09:55N 65°51' E 013°11'0 0.0
2018-Apr-18 09:28N 65°51' E 013°11'0 0.0
2018-Apr-18 08:58N 65°51' E 013°11'0 0.0
2018-Apr-18 08:30N 65°51' E 013°11'0 0.0
2018-Apr-18 07:59N 65°51' E 013°11'0 0.0
2018-Apr-18 07:29N 65°51' E 013°11'0 0.0
2018-Apr-18 07:00N 65°51' E 013°11'0 0.0
2018-Apr-18 06:30N 65°51' E 013°11'0 0.0
2018-Apr-18 06:00N 65°51' E 013°11'0 0.0
2018-Apr-18 05:29N 65°51' E 013°11'0 0.0
2018-Apr-18 04:59N 65°51' E 013°11'0 0.0
2018-Apr-18 04:30N 65°51' E 013°11'0 0.0
2018-Apr-18 04:00N 65°51' E 013°11'0 0.0
2018-Apr-18 03:30N 65°51' E 013°11'0 0.0
2018-Apr-18 03:00N 65°51' E 013°11'0 0.0
2018-Apr-18 02:30N 65°51' E 013°11'0 0.0
2018-Apr-18 01:58N 65°51' E 013°11'0 0.0
2018-Apr-18 01:28N 65°51' E 013°11'0 0.0
2018-Apr-18 00:17N 65°51' E 013°11'0 0.0
2018-Apr-17 23:42N 65°51' E 013°11'0 0.0
2018-Apr-17 23:18N 65°51' E 013°11'0 0.0
2018-Apr-17 22:55N 65°51' E 013°11'0 0.0
2018-Apr-17 22:30N 65°51' E 013°11'0 0.0
2018-Apr-17 22:00N 65°51' E 013°11'0 0.0
2018-Apr-17 21:30N 65°51' E 013°11'0 0.0
2018-Apr-17 20:58N 65°51' E 013°11'0 0.0
2018-Apr-17 20:30N 65°51' E 013°11'0 0.0
2018-Apr-17 20:00N 65°51' E 013°11'0 0.0
2018-Apr-17 19:28N 65°51' E 013°11'0 0.0
2018-Apr-17 19:00N 65°51' E 013°11'0 0.0
2018-Apr-17 18:29N 65°51' E 013°11'0 0.0
2018-Apr-17 18:00N 65°51' E 013°11'0 0.0
2018-Apr-17 17:30N 65°51' E 013°11'0 0.0
2018-Apr-17 17:00N 65°51' E 013°11'0 0.0
2018-Apr-17 16:30N 65°51' E 013°11'0 0.0
2018-Apr-17 15:58N 65°51' E 013°11'0 0.0
2018-Apr-17 15:30N 65°51' E 013°11'0 0.0
2018-Apr-17 14:58N 65°51' E 013°11'0 0.0
2018-Apr-17 14:30N 65°51' E 013°11'0 0.0
2018-Apr-17 14:00N 65°51' E 013°11'0 0.0
2018-Apr-17 13:30N 65°51' E 013°11'0 0.0
2018-Apr-17 13:00N 65°51' E 013°11'0 0.0
2018-Apr-17 12:30N 65°51' E 013°11'0 0.0
2018-Apr-17 12:00N 65°51' E 013°11'0 0.0
2018-Apr-17 11:30N 65°51' E 013°11'0 0.0
2018-Apr-17 11:00N 65°51' E 013°11'0 0.0
2018-Apr-17 10:27N 65°51' E 013°11'0 0.0
2018-Apr-17 09:45N 65°51' E 013°11'0 0.0
2018-Apr-17 09:26N 65°51' E 013°11'0 0.0
2018-Apr-17 08:59N 65°51' E 013°11'0 0.0
2018-Apr-17 08:30N 65°51' E 013°11'0 0.0
2018-Apr-17 08:00N 65°51' E 013°11'0 0.0
2018-Apr-17 07:30N 65°51' E 013°11'0 0.0
2018-Apr-17 06:58N 65°51' E 013°11'0 0.0
2018-Apr-17 06:25N 65°51' E 013°11'0 0.0
2018-Apr-17 05:58N 65°51' E 013°11'0 0.0
2018-Apr-17 05:28N 65°51' E 013°11'0 0.0
2018-Apr-17 05:00N 65°51' E 013°11'0 0.0
2018-Apr-17 04:28N 65°51' E 013°11'0 0.0
2018-Apr-17 04:00N 65°51' E 013°11'0 0.0
2018-Apr-17 03:30N 65°51' E 013°11'0 0.0
2018-Apr-17 03:00N 65°51' E 013°11'0 0.0
2018-Apr-17 02:29N 65°51' E 013°11'0 0.0
2018-Apr-17 01:58N 65°51' E 013°11'0 0.0
2018-Apr-17 01:30N 65°51' E 013°11'0 0.0
2018-Apr-17 01:00N 65°51' E 013°11'0 0.0
2018-Apr-17 00:27N 65°51' E 013°11'0 0.0
2018-Apr-17 00:00N 65°51' E 013°11'0 0.0
2018-Apr-16 23:30N 65°51' E 013°11'0 0.0
2018-Apr-16 23:00N 65°51' E 013°11'0 0.0
2018-Apr-16 22:30N 65°51' E 013°11'0 0.0
2018-Apr-16 22:00N 65°51' E 013°11'0 0.0
2018-Apr-16 21:30N 65°51' E 013°11'0 0.0
2018-Apr-16 21:00N 65°51' E 013°11'0 0.0
2018-Apr-16 20:30N 65°51' E 013°11'0 0.0
2018-Apr-16 19:58N 65°51' E 013°11'0 0.0
2018-Apr-16 19:30N 65°51' E 013°11'0 0.0
2018-Apr-16 19:00N 65°51' E 013°11'0 0.0
2018-Apr-16 18:30N 65°51' E 013°11'0 0.0
2018-Apr-16 18:00N 65°51' E 013°11'0 0.0
2018-Apr-16 17:30N 65°51' E 013°11'0 0.0
2018-Apr-16 17:00N 65°51' E 013°11'0 0.0
2018-Apr-16 16:30N 65°51' E 013°11'0 0.0
2018-Apr-16 16:00N 65°51' E 013°11'0 0.0
2018-Apr-16 15:30N 65°51' E 013°11'0 0.0
2018-Apr-16 15:00N 65°51' E 013°11'0 0.0
2018-Apr-16 14:30N 65°51' E 013°11'0 0.0
2018-Apr-16 13:58N 65°51' E 013°11'0 0.0
2018-Apr-16 13:29N 65°51' E 013°11'0 0.0
2018-Apr-16 12:59N 65°51' E 013°11'0 0.0
2018-Apr-16 12:30N 65°51' E 013°11'0 0.1
2018-Apr-16 12:00N 65°51' E 013°11'3 6.4
2018-Apr-16 11:29N 65°54' E 013°08'4 9.0
2018-Apr-16 11:00N 65°57' E 012°59'3 7.0
2018-Apr-16 10:30N 65°60' E 012°55'3 6.2
2018-Apr-16 10:00N 66°03' E 012°53'4 8.8
2018-Apr-16 09:30N 66°02' E 012°42'3 5.7
2018-Apr-16 09:00N 66°05' E 012°39'5 9.2
2018-Apr-16 08:30N 66°09' E 012°40'4 8.8
2018-Apr-16 08:00N 66°14' E 012°38'4 7.1
2018-Apr-16 07:30N 66°15' E 012°29'4 8.6
2018-Apr-16 07:00N 66°16' E 012°19'5 9.1
2018-Apr-16 06:31N 66°16' E 012°08'5 9.0
2018-Apr-16 06:00N 66°15' E 011°57'4 9.0
2018-Apr-16 05:31N 66°14' E 011°47'5 9.3
2018-Apr-16 05:00N 66°12' E 011°36'5 9.2
2018-Apr-16 04:30N 66°09' E 011°28'5 9.6
2018-Apr-16 04:00N 66°05' E 011°21'231 9.0
2018-Apr-15 02:24N 62°59' E 006°03'4 9.3
2018-Apr-15 02:00N 62°56' E 005°59'5 9.2
2018-Apr-15 01:29N 62°52' E 005°53'4 8.8
2018-Apr-15 01:00N 62°49' E 005°47'4 8.8
2018-Apr-15 00:30N 62°45' E 005°41'4 8.8
2018-Apr-15 00:00N 62°42' E 005°36'4 8.7
2018-Apr-14 23:30N 62°38' E 005°30'4 9.0
2018-Apr-14 23:00N 62°35' E 005°24'5 8.9
2018-Apr-14 22:30N 62°31' E 005°19'4 8.9
2018-Apr-14 22:00N 62°27' E 005°13'5 8.9
2018-Apr-14 21:29N 62°24' E 005°07'4 8.8
2018-Apr-14 21:00N 62°20' E 005°02'4 8.6
2018-Apr-14 20:30N 62°17' E 004°56'5 9.4
2018-Apr-14 20:00N 62°13' E 004°50'5 9.0
2018-Apr-14 19:30N 62°09' E 004°45'5 8.9
2018-Apr-14 18:59N 62°06' E 004°39'4 9.1
2018-Apr-14 18:30N 62°02' E 004°33'4 8.9
2018-Apr-14 18:00N 61°58' E 004°29'4 8.9
2018-Apr-14 17:30N 61°54' E 004°27'4 8.8
2018-Apr-14 17:01N 61°50' E 004°26'5 9.1
2018-Apr-14 16:30N 61°45' E 004°23'  
2018-Apr-12 00:11N 54°07' E 000°39'2 7.0
2018-Apr-11 23:57N 54°06' E 000°38'3 7.1
2018-Apr-11 23:29N 54°03' E 000°37'33 7.2
2018-Apr-11 18:51N 53°33' E 000°12'3 9.3
2018-Apr-11 18:30N 53°33' E 000°07'4 6.8
2018-Apr-11 17:58N 53°35' E 000°02'510.5
2018-Apr-11 17:27N 53°37' W 000°07'3 6.1
2018-Apr-11 17:00N 53°38' W 000°11'0 0.4
2018-Apr-11 16:30N 53°38' W 000°12'0 0.3
2018-Apr-11 16:00N 53°38' W 000°12'0 0.0
2018-Apr-11 15:28N 53°38' W 000°12'0 0.0
2018-Apr-11 14:58N 53°38' W 000°12'0 0.0
2018-Apr-11 14:28N 53°38' W 000°12'0 0.0
2018-Apr-11 13:58N 53°38' W 000°12'0 0.0
2018-Apr-11 13:22N 53°38' W 000°12'0 0.0
2018-Apr-11 12:58N 53°38' W 000°12'0 0.0
2018-Apr-11 12:22N 53°38' W 000°12'0 0.0
2018-Apr-11 11:46N 53°38' W 000°12'0 0.0
2018-Apr-11 11:22N 53°38' W 000°12'0 0.0
2018-Apr-11 10:58N 53°38' W 000°12'0 0.0
2018-Apr-11 10:22N 53°38' W 000°12'0 0.0
2018-Apr-11 09:55N 53°38' W 000°12'0 0.0
2018-Apr-11 09:16N 53°38' W 000°12'0 0.0
2018-Apr-11 08:58N 53°38' W 000°12'0 0.0
2018-Apr-11 08:10N 53°38' W 000°12'0 0.0
2018-Apr-11 07:10N 53°38' W 000°12'0 0.0
2018-Apr-11 06:55N 53°38' W 000°12'0 0.0
2018-Apr-11 02:25N 53°38' W 000°12'0 0.0
2018-Apr-11 01:55N 53°38' W 000°12'0 0.0
2018-Apr-11 00:13N 53°38' W 000°12'0 0.0
2018-Apr-10 23:59N 53°38' W 000°12'0 0.0
2018-Apr-10 23:30N 53°38' W 000°12'0 0.0
2018-Apr-10 22:49N 53°38' W 000°12'0 0.0
2018-Apr-10 22:30N 53°38' W 000°12'0 0.0
2018-Apr-10 21:59N 53°38' W 000°12'0 0.0
2018-Apr-10 21:30N 53°38' W 000°12'0 0.0
2018-Apr-10 21:00N 53°38' W 000°12'0 0.7
2018-Apr-10 20:30N 53°38' W 000°11'1 1.7
2018-Apr-10 20:00N 53°39' W 000°12'1 3.0
2018-Apr-10 19:30N 53°38' W 000°10'3 5.5
2018-Apr-10 19:00N 53°37' W 000°05'4 8.3
2018-Apr-10 18:30N 53°35' E 000°01'4 8.4
2018-Apr-10 18:00N 53°34' E 000°08'  

Dump ship's entire track history